Time;durP1;ratioP1;P1;durP2;ratioP2;P2;SDS_P1;SDS_P2;PMS_P1;PMS_P2;Temp;Humidity;BMP_temperature;BMP_pressure;BME280_temperature;BME280_humidity;BME280_pressure;Samples;Min_cycle;Max_cycle;Signal;HPM_P1;HPM_P2
2022/01/08 00:00:34;;;;;;;3.95;3.75;;;;;;;-0.10;100.00;101047.91;6248838;23;20087;-79
2022/01/08 00:02:59;;;;;;;3.90;3.35;;;;;;;-0.07;100.00;101048.81;6249784;23;20003;-79
2022/01/08 00:05:24;;;;;;;3.40;3.20;;;;;;;0.01;100.00;101056.66;6249293;23;20011;-79
2022/01/08 00:07:50;;;;;;;3.75;3.55;;;;;;;0.00;100.00;101047.94;6248909;23;20404;-80
2022/01/08 00:10:16;;;;;;;3.47;3.28;;;;;;;0.26;100.00;101057.56;6249226;23;20360;-79
2022/01/08 00:12:42;;;;;;;3.60;3.40;;;;;;;0.35;100.00;101050.63;6249058;23;20084;-78
2022/01/08 00:15:08;;;;;;;3.67;3.47;;;;;;;0.52;100.00;101058.50;6249251;23;20027;-79
2022/01/08 00:17:37;;;;;;;3.63;3.42;;;;;;;0.57;100.00;101057.63;6249429;23;20004;-79
2022/01/08 00:20:05;;;;;;;3.30;3.10;;;;;;;0.42;100.00;101049.78;6248495;23;20187;-79
2022/01/08 00:22:30;;;;;;;3.72;3.53;;;;;;;0.51;100.00;101057.63;6247895;23;19984;-78
2022/01/08 00:24:55;;;;;;;3.90;3.70;;;;;;;0.51;100.00;101057.63;6248107;23;20004;-79
2022/01/08 00:27:22;;;;;;;3.10;2.90;;;;;;;0.51;100.00;101060.25;6246878;23;20012;-79
2022/01/08 00:29:48;;;;;;;3.15;2.95;;;;;;;0.51;100.00;101069.81;6248187;23;20050;-79
2022/01/08 00:32:14;;;;;;;3.53;3.33;;;;;;;0.38;100.00;101075.91;6248625;23;20007;-78
2022/01/08 00:34:41;;;;;;;3.13;2.95;;;;;;;0.28;100.00;101071.53;6247734;23;20038;-79
2022/01/08 00:37:06;;;;;;;3.10;2.90;;;;;;;0.11;100.00;101061.00;6248172;23;20367;-79
2022/01/08 00:39:32;;;;;;;4.32;3.92;;;;;;;0.11;100.00;101075.84;6248772;23;20006;-80
2022/01/08 00:41:58;;;;;;;3.20;3.00;;;;;;;0.10;100.00;101071.44;6248002;23;20320;-80
2022/01/08 00:44:23;;;;;;;3.20;3.00;;;;;;;0.05;100.00;101068.84;6248829;23;20011;-79
2022/01/08 00:46:48;;;;;;;4.03;3.83;;;;;;;-0.05;100.00;101059.25;6247510;23;20004;-80
2022/01/08 00:49:14;;;;;;;3.40;3.20;;;;;;;-0.07;100.00;101068.81;6249033;23;20015;-78
2022/01/08 00:51:39;;;;;;;3.22;3.03;;;;;;;-0.05;100.00;101062.72;6248384;23;20074;-79
2022/01/08 00:54:04;;;;;;;3.38;3.17;;;;;;;0.03;100.00;101052.31;6248742;23;20327;-78
2022/01/08 00:56:29;;;;;;;3.90;3.60;;;;;;;0.08;100.00;101058.41;6248856;23;20004;-79
2022/01/08 00:58:55;;;;;;;4.50;4.25;;;;;;;0.07;100.00;101066.22;6248538;23;20027;-78
2022/01/08 01:01:20;;;;;;;3.40;3.20;;;;;;;-0.10;100.00;101063.56;6248698;23;20000;-78
2022/01/08 01:03:45;;;;;;;3.30;3.10;;;;;;;0.01;100.00;101059.25;6247550;23;20428;-78
2022/01/08 01:06:11;;;;;;;3.53;3.33;;;;;;;0.19;100.00;101066.28;6248698;23;20007;-78
2022/01/08 01:08:36;;;;;;;3.70;3.50;;;;;;;0.08;100.00;101071.44;6248199;23;20004;-78
2022/01/08 01:11:02;;;;;;;3.20;3.00;;;;;;;0.12;100.00;101072.34;6248306;23;20016;-78
2022/01/08 01:13:27;;;;;;;3.70;3.50;;;;;;;0.03;100.00;101075.81;6248744;23;20087;-79
2022/01/08 01:15:53;;;;;;;3.40;3.20;;;;;;;-0.03;100.00;101079.25;6248179;23;20052;-79
2022/01/08 01:18:18;;;;;;;3.50;3.30;;;;;;;0.07;100.00;101058.41;6248638;23;20011;-78
2022/01/08 01:20:44;;;;;;;3.50;3.30;;;;;;;0.05;100.00;101070.59;6248382;23;20008;-78
2022/01/08 01:23:18;;;;;;;3.63;3.42;;;;;;;0.00;100.00;101065.38;6247351;23;20007;-78
2022/01/08 01:25:51;;;;;;;3.22;3.03;;;;;;;-0.14;100.00;101075.72;6248906;23;20053;-79
2022/01/08 01:47:10;;;;;;;4.30;4.10;;;;;;;-0.44;100.00;101086.03;6248814;23;20073;-78
2022/01/08 01:49:41;;;;;;;4.00;3.80;;;;;;;-0.41;100.00;101083.44;6248496;23;20004;-78
2022/01/08 01:52:08;;;;;;;3.92;3.72;;;;;;;-0.36;100.00;101086.94;6248047;23;20366;-78
2022/01/08 01:54:34;;;;;;;4.00;3.80;;;;;;;-0.09;100.00;101094.91;6248095;23;20000;-78
2022/01/08 01:57:02;;;;;;;3.75;3.55;;;;;;;0.07;100.00;101100.16;6248079;23;20004;-78
2022/01/08 01:59:29;;;;;;;4.10;3.90;;;;;;;0.34;100.00;101095.91;6247695;23;20000;-78
2022/01/08 02:01:56;;;;;;;3.47;3.28;;;;;;;0.75;100.00;101095.97;6247745;23;20008;-77
2022/01/08 02:04:21;;;;;;;3.53;3.33;;;;;;;0.74;100.00;101099.47;6248090;23;20062;-77
2022/01/08 02:06:47;;;;;;;3.30;3.10;;;;;;;1.02;100.00;101099.50;6248291;23;19995;-77
2022/01/08 02:09:12;;;;;;;2.80;2.70;;;;;;;1.10;100.00;101110.81;6248066;23;20011;-78
2022/01/08 02:12:17;;;;;;;2.85;2.75;;;;;;;1.27;100.00;101109.06;6246111;23;20011;-78
2022/01/08 02:14:45;;;;;;;2.95;2.85;;;;;;;1.26;100.00;101096.84;6249580;23;20011;-78
2022/01/08 02:17:10;;;;;;;3.33;3.13;;;;;;;1.10;100.00;101099.50;6248379;23;20004;-78
2022/01/08 02:19:37;;;;;;;2.58;2.47;;;;;;;1.28;100.00;101107.31;6247883;23;20054;-78
2022/01/08 02:22:04;;;;;;;2.50;2.40;;;;;;;1.35;100.00;101098.59;6249321;23;20008;-78
2022/01/08 02:24:30;;;;;;;2.47;2.38;;;;;;;1.22;100.00;101104.69;6250740;23;20067;-78
2022/01/08 02:26:56;;;;;;;2.40;2.30;;;;;;;1.11;100.00;101111.69;6248355;23;20499;-79
2022/01/08 02:29:24;;;;;;;2.72;2.63;;;;;;;1.14;100.00;101104.72;6249016;23;20012;-77
2022/01/08 02:31:57;;;;;;;2.40;2.30;;;;;;;1.28;100.00;101108.19;6248579;23;20494;-78
2022/01/08 02:34:24;;;;;;;2.50;2.40;;;;;;;1.36;100.00;101095.97;6247533;23;20015;-78
2022/01/08 02:36:50;;;;;;;2.72;2.63;;;;;;;1.21;100.00;101097.75;6250361;23;20004;-78
2022/01/08 02:39:16;;;;;;;2.55;2.45;;;;;;;1.23;100.00;101096.84;6249618;23;20318;-79
2022/01/08 02:41:41;;;;;;;2.30;2.20;;;;;;;1.23;100.00;101098.63;6249599;23;20007;-79
2022/01/08 02:44:07;;;;;;;3.00;2.88;;;;;;;0.96;100.00;101090.78;6249105;23;20046;-78
2022/01/08 02:46:33;;;;;;;2.85;2.72;;;;;;;0.89;100.00;101095.13;6247645;23;20301;-78
2022/01/08 02:48:58;;;;;;;2.63;2.53;;;;;;;0.99;100.00;101088.16;6248712;23;20000;-78
2022/01/08 02:51:24;;;;;;;2.70;2.60;;;;;;;0.99;100.00;101098.63;6247503;23;20053;-78
2022/01/08 02:53:50;;;;;;;2.40;2.30;;;;;;;0.99;100.00;101096.84;6246386;23;19996;-79
2022/01/08 02:56:16;;;;;;;2.60;2.50;;;;;;;0.96;100.00;101094.25;6247496;23;20008;-78
2022/01/08 02:58:41;;;;;;;3.17;2.97;;;;;;;1.10;100.00;101095.09;6246502;23;20027;-79
2022/01/08 03:01:07;;;;;;;2.50;2.40;;;;;;;0.96;100.00;101090.78;6245293;23;20000;-78
2022/01/08 03:03:32;;;;;;;2.40;2.30;;;;;;;0.91;100.00;101092.50;6247520;23;19996;-78
2022/01/08 03:05:57;;;;;;;2.40;2.30;;;;;;;0.76;100.00;101089.88;6246905;23;20090;-78
2022/01/08 03:08:23;;;;;;;2.40;2.30;;;;;;;0.60;100.00;101089.00;6246420;23;20000;-78
2022/01/08 03:10:48;;;;;;;2.50;2.40;;;;;;;0.68;100.00;101092.50;6247340;23;20019;-78
2022/01/08 03:13:13;;;;;;;2.88;2.78;;;;;;;0.63;100.00;101088.16;6247583;23;20000;-78
2022/01/08 03:15:41;;;;;;;2.55;2.45;;;;;;;0.62;100.00;101092.50;6246866;23;20011;-78
2022/01/08 03:18:23;;;;;;;2.75;2.65;;;;;;;0.42;100.00;101091.59;6246012;23;20000;-78
2022/01/08 03:21:00;;;;;;;2.60;2.50;;;;;;;0.49;100.00;101097.72;6247407;23;20012;-79
2022/01/08 03:23:47;;;;;;;2.60;2.50;;;;;;;0.71;100.00;101092.50;6247712;23;20065;-78
2022/01/08 03:26:13;;;;;;;2.70;2.60;;;;;;;1.20;100.00;101095.97;6247599;23;20000;-77
2022/01/08 03:28:39;;;;;;;2.50;2.40;;;;;;;1.36;100.00;101089.84;6247509;23;20008;-78
2022/01/08 03:31:04;;;;;;;2.50;2.40;;;;;;;1.28;100.00;101091.59;6247152;23;20039;-78
2022/01/08 03:33:30;;;;;;;2.20;2.10;;;;;;;1.31;100.00;101107.31;6247445;23;20011;-78
2022/01/08 03:35:55;;;;;;;2.30;2.20;;;;;;;1.34;100.00;101094.22;6249174;23;20011;-78
2022/01/08 03:38:21;;;;;;;2.30;2.20;;;;;;;1.22;100.00;101099.47;6249372;23;20003;-77
2022/01/08 03:40:46;;;;;;;2.50;2.40;;;;;;;1.43;100.00;101097.69;6249180;23;20030;-77
2022/01/08 03:43:11;;;;;;;2.25;2.15;;;;;;;1.45;100.00;101089.84;6249461;23;20000;-78
2022/01/08 03:45:37;;;;;;;2.30;2.20;;;;;;;1.40;100.00;101086.38;6248023;23;20340;-78
2022/01/08 03:50:46;;;;;;;2.30;2.20;;;;;;;1.35;100.00;101098.59;6248200;23;20142;-79
2022/01/08 03:53:12;;;;;;;2.30;2.20;;;;;;;1.20;100.00;101098.59;6248960;23;20039;-79
2022/01/08 03:55:38;;;;;;;2.30;2.20;;;;;;;0.95;100.00;101091.63;6248917;23;20000;-79
2022/01/08 03:58:04;;;;;;;2.40;2.30;;;;;;;1.02;100.00;101093.38;6249271;23;20011;-79
2022/01/08 04:00:30;;;;;;;2.40;2.30;;;;;;;1.12;100.00;101087.28;6249319;23;20008;-79
2022/01/08 04:02:55;;;;;;;2.40;2.30;;;;;;;1.22;100.00;101081.16;6248577;23;20000;-78
2022/01/08 04:05:21;;;;;;;2.70;2.60;;;;;;;0.98;100.00;101083.78;6249430;23;20011;-79
2022/01/08 04:07:46;;;;;;;2.40;2.30;;;;;;;1.10;100.00;101091.66;6249137;23;20413;-79
2022/01/08 04:10:12;;;;;;;2.58;2.47;;;;;;;0.98;100.00;101086.41;6248670;23;20008;-79
2022/01/08 04:12:43;;;;;;;2.65;2.55;;;;;;;0.76;100.00;101087.25;6249307;23;20003;-79
2022/01/08 04:15:31;;;;;;;2.42;2.33;;;;;;;0.75;100.00;101088.16;6249455;23;20444;-79
2022/01/08 04:17:54;;;;;;;2.60;2.50;;;;;;;0.54;100.00;101096.81;6248640;23;20471;-78
2022/01/08 04:20:21;;;;;;;2.50;2.40;;;;;;;0.38;100.00;101102.03;6249295;23;20000;-78
2022/01/08 04:22:49;;;;;;;2.75;2.65;;;;;;;0.55;100.00;101106.41;6248907;23;20324;-78
2022/01/08 04:25:20;;;;;;;2.60;2.50;;;;;;;0.83;100.00;101107.31;6248642;23;20000;-79
2022/01/08 04:27:46;;;;;;;2.75;2.65;;;;;;;0.69;100.00;101119.50;6248311;23;20023;-78
2022/01/08 04:30:12;;;;;;;2.60;2.50;;;;;;;0.72;100.00;101109.94;6249380;23;20000;-79
2022/01/08 04:32:39;;;;;;;2.60;2.50;;;;;;;0.71;100.00;101116.00;6249323;23;20032;-78
2022/01/08 04:35:05;;;;;;;2.60;2.50;;;;;;;0.59;100.00;101125.56;6248319;23;20000;-79
2022/01/08 04:37:30;;;;;;;2.53;2.42;;;;;;;0.61;100.00;101122.13;6249100;23;20038;-79
2022/01/08 04:39:56;;;;;;;2.50;2.40;;;;;;;0.91;100.00;101129.13;6248706;23;20004;-78
2022/01/08 04:42:21;;;;;;;2.53;2.42;;;;;;;0.60;100.00;101127.34;6249082;23;20018;-79
2022/01/08 04:44:47;;;;;;;2.60;2.50;;;;;;;0.62;100.00;101133.41;6248742;23;20032;-78
2022/01/08 04:47:13;;;;;;;2.67;2.58;;;;;;;0.61;100.00;101134.31;6249390;23;20087;-79
2022/01/08 04:49:38;;;;;;;2.65;2.55;;;;;;;0.50;100.00;101138.63;6249436;23;20000;-78
2022/01/08 04:52:05;;;;;;;2.60;2.50;;;;;;;0.44;100.00;101139.47;6249117;23;20055;-79
2022/01/08 04:54:30;;;;;;;2.50;2.40;;;;;;;0.60;100.00;101135.19;6248963;23;20015;-79
2022/01/08 04:56:56;;;;;;;2.67;2.58;;;;;;;0.64;100.00;101129.97;6248508;23;20432;-79
2022/01/08 04:59:21;;;;;;;2.67;2.58;;;;;;;0.70;100.00;101137.81;6248524;23;20012;-78
2022/01/08 05:01:47;;;;;;;2.53;2.42;;;;;;;0.70;100.00;101129.09;6247662;23;20008;-79
2022/01/08 05:04:12;;;;;;;2.50;2.40;;;;;;;0.66;100.00;101129.97;6248702;23;19988;-79
2022/01/08 05:06:38;;;;;;;2.80;2.70;;;;;;;0.71;100.00;101129.09;6248839;23;20375;-79
2022/01/08 05:09:04;;;;;;;5.38;3.40;;;;;;;0.57;100.00;101127.34;6246616;23;20486;-79
2022/01/08 05:11:30;;;;;;;2.95;2.78;;;;;;;0.40;100.00;101127.28;6247861;23;20078;-79
2022/01/08 05:13:55;;;;;;;2.50;2.40;;;;;;;0.22;100.00;101129.81;6248143;23;20155;-79
2022/01/08 05:16:22;;;;;;;2.88;2.78;;;;;;;0.55;100.00;101132.53;6248587;23;20429;-78
2022/01/08 05:18:50;;;;;;;2.78;2.67;;;;;;;0.49;100.00;101129.91;6248549;23;20007;-78
2022/01/08 05:21:25;;;;;;;3.00;2.90;;;;;;;0.56;100.00;101118.63;6248792;23;20369;-78
2022/01/08 05:23:52;;;;;;;3.50;3.30;;;;;;;0.39;100.00;101115.09;6248967;23;20028;-79
2022/01/08 05:26:17;;;;;;;3.35;3.15;;;;;;;0.35;100.00;101133.38;6248020;23;20459;-79
2022/01/08 05:28:44;;;;;;;2.92;2.83;;;;;;;0.45;100.00;101137.75;6247744;23;20008;-78
2022/01/08 05:31:11;;;;;;;2.65;2.55;;;;;;;0.66;100.00;101141.25;6249357;23;20012;-79
2022/01/08 05:33:36;;;;;;;2.58;2.47;;;;;;;0.79;100.00;101143.03;6249025;23;20012;-79
2022/01/08 05:36:03;;;;;;;2.72;2.63;;;;;;;1.03;100.00;101139.56;6247548;23;20487;-78
2022/01/08 05:38:28;;;;;;;3.03;2.88;;;;;;;1.05;100.00;101141.34;6248408;23;20078;-78
2022/01/08 05:40:54;;;;;;;2.63;2.53;;;;;;;1.22;100.00;101151.78;6248222;23;20035;-78
2022/01/08 05:43:19;;;;;;;2.58;2.47;;;;;;;1.47;100.00;101150.91;6248781;23;19988;-79
2022/01/08 05:45:45;;;;;;;2.50;2.40;;;;;;;1.75;100.00;101157.84;6248129;23;20036;-78
2022/01/08 05:48:10;;;;;;;2.72;2.63;;;;;;;1.67;100.00;101151.72;6248081;23;20007;-78
2022/01/08 05:50:35;;;;;;;2.20;2.10;;;;;;;1.55;100.00;101154.38;6248806;23;20438;-78
2022/01/08 05:53:01;;;;;;;2.20;2.10;;;;;;;1.76;100.00;101159.59;6247973;23;20015;-78
2022/01/08 05:55:26;;;;;;;2.10;2.00;;;;;;;1.91;100.00;101148.22;6248801;23;20004;-78
2022/01/08 05:57:51;;;;;;;2.03;1.92;;;;;;;1.97;100.00;101142.97;6247161;23;20057;-78
2022/01/08 06:00:17;;;;;;;2.28;2.17;;;;;;;2.04;100.00;101149.91;6248389;23;20000;-78
2022/01/08 06:02:42;;;;;;;2.00;1.90;;;;;;;1.98;100.00;101149.94;6247813;23;20000;-79
2022/01/08 06:05:09;;;;;;;2.83;2.63;;;;;;;1.90;100.00;101142.09;6247898;23;20333;-80
2022/01/08 06:07:34;;;;;;;2.20;2.10;;;;;;;1.97;100.00;101132.47;6247857;23;20000;-78
2022/01/08 06:10:00;;;;;;;2.08;1.98;;;;;;;2.12;100.00;101130.66;6248257;23;20000;-78
2022/01/08 06:12:26;;;;;;;2.13;2.03;;;;;;;2.03;100.00;101132.44;6247719;23;20012;-79
2022/01/08 06:14:51;;;;;;;2.10;2.00;;;;;;;1.92;100.00;101137.75;6247453;23;20005;-79
2022/01/08 06:17:16;;;;;;;2.20;2.10;;;;;;;1.87;100.00;101122.91;6247921;23;20008;-80
2022/01/08 06:19:42;;;;;;;2.20;2.10;;;;;;;1.83;100.00;101129.88;6247395;23;20004;-80
2022/01/08 06:22:07;;;;;;;2.72;2.63;;;;;;;1.68;100.00;101123.81;6247301;23;20050;-80
2022/01/08 06:24:32;;;;;;;2.20;2.10;;;;;;;1.55;100.00;101126.47;6247183;23;19996;-79
2022/01/08 06:26:58;;;;;;;2.30;2.20;;;;;;;1.50;100.00;101129.97;6248212;23;20004;-81
2022/01/08 06:29:23;;;;;;;3.03;2.83;;;;;;;1.47;100.00;101119.50;6247499;23;20015;-79
2022/01/08 06:31:49;;;;;;;2.20;2.10;;;;;;;1.34;100.00;101128.22;6247999;23;20004;-80
2022/01/08 06:34:14;;;;;;;3.20;3.00;;;;;;;1.22;100.00;101123.00;6247837;23;20004;-81
2022/01/08 06:36:39;;;;;;;2.85;2.72;;;;;;;1.22;100.00;101118.66;6248459;23;20023;-78
2022/01/08 06:39:05;;;;;;;2.30;2.20;;;;;;;1.33;100.00;101127.38;6247193;23;20008;-80
2022/01/08 06:41:30;;;;;;;2.42;2.33;;;;;;;1.34;100.00;101123.00;6247793;23;20023;-83
2022/01/08 06:43:57;;;;;;;2.20;2.10;;;;;;;1.43;100.00;101117.78;6247207;23;20069;-78
2022/01/08 06:46:23;;;;;;;2.10;2.00;;;;;;;1.43;100.00;101128.25;6247413;23;20000;-80
2022/01/08 06:48:49;;;;;;;3.03;2.83;;;;;;;1.54;100.00;101126.47;6247943;23;20004;-80
2022/01/08 06:51:30;;;;;;;2.10;2.00;;;;;;;1.50;100.00;101116.88;6247729;23;20337;-81
2022/01/08 06:53:55;;;;;;;2.42;2.28;;;;;;;1.40;100.00;101118.63;6247520;23;20004;-79
2022/01/08 06:56:20;;;;;;;2.20;2.10;;;;;;;1.39;100.00;101111.66;6247440;23;19996;-79
2022/01/08 06:58:46;;;;;;;2.60;2.50;;;;;;;1.63;100.00;101113.38;6247649;23;20000;-79
2022/01/08 07:01:11;;;;;;;2.35;2.25;;;;;;;1.58;100.00;101108.16;6247058;23;20071;-79
2022/01/08 07:03:36;;;;;;;2.38;2.28;;;;;;;1.58;100.00;101112.50;6246838;23;20412;-79
2022/01/08 07:06:02;;;;;;;2.08;1.98;;;;;;;1.59;100.00;101109.88;6246924;23;20135;-79
2022/01/08 07:08:27;;;;;;;2.13;2.03;;;;;;;1.55;100.00;101108.16;6247141;23;20003;-80
2022/01/08 07:10:53;;;;;;;2.00;1.90;;;;;;;1.61;100.00;101109.88;6246847;23;20000;-80
2022/01/08 07:13:18;;;;;;;3.88;3.25;;;;;;;1.71;100.00;101108.97;6247491;23;20011;-81
2022/01/08 07:15:43;;;;;;;2.17;2.08;;;;;;;1.86;100.00;101114.16;6246401;23;20036;-77
2022/01/08 07:18:09;;;;;;;2.10;2.00;;;;;;;1.88;100.00;101115.03;6247183;23;20054;-75
2022/01/08 07:20:34;;;;;;;2.13;2.03;;;;;;;1.93;100.00;101108.03;6246607;23;20447;-75
2022/01/08 07:22:59;;;;;;;2.42;2.33;;;;;;;1.96;100.00;101101.91;6246104;23;20004;-78
2022/01/08 07:25:25;;;;;;;1.80;1.70;;;;;;;1.97;100.00;101096.66;6247298;23;20011;-76
2022/01/08 07:27:50;;;;;;;2.25;2.13;;;;;;;1.94;100.00;101101.91;6245107;23;20016;-73
2022/01/08 07:30:19;;;;;;;2.28;2.17;;;;;;;1.94;100.00;101101.06;6246877;23;20014;-81
2022/01/08 07:32:52;;;;;;;2.00;1.90;;;;;;;2.00;100.00;101096.66;6246280;23;20008;-75
2022/01/08 07:35:21;;;;;;;2.13;2.03;;;;;;;1.94;100.00;101103.69;6246177;23;20012;-76
2022/01/08 07:37:47;;;;;;;2.10;2.00;;;;;;;1.89;100.00;101100.22;6244045;23;20001;-76
2022/01/08 07:40:13;;;;;;;3.10;2.08;;;;;;;1.85;100.00;101101.06;6244565;23;20427;-77
2022/01/08 07:42:40;;;;;;;2.35;2.25;;;;;;;1.87;100.00;101092.34;6245875;23;20038;-77
2022/01/08 07:45:08;;;;;;;2.75;2.65;;;;;;;1.85;100.00;101090.59;6246525;23;20038;-76
2022/01/08 07:47:33;;;;;;;1.95;1.85;;;;;;;1.87;100.00;101087.13;6246091;23;20034;-77
2022/01/08 07:49:58;;;;;;;2.00;1.90;;;;;;;1.79;100.00;101088.00;6241900;23;20005;-78
2022/01/08 07:52:24;;;;;;;2.03;1.92;;;;;;;1.83;100.00;101085.38;6246585;23;20008;-76
2022/01/08 07:54:49;;;;;;;2.25;2.15;;;;;;;1.85;100.00;101086.25;6246304;23;20066;-77
2022/01/08 07:57:14;;;;;;;3.00;2.70;;;;;;;1.82;100.00;101083.63;6245799;23;20004;-76
2022/01/08 07:59:42;;;;;;;2.42;2.33;;;;;;;1.94;100.00;101093.22;6245640;23;20000;-77
2022/01/08 08:02:08;;;;;;;2.40;2.30;;;;;;;1.87;100.00;101084.50;6245277;23;20416;-76
2022/01/08 08:04:33;;;;;;;2.10;2.00;;;;;;;1.93;100.00;101078.34;6246472;23;20055;-76
2022/01/08 08:06:59;;;;;;;2.20;2.10;;;;;;;1.96;100.00;101070.47;6245296;23;20007;-77
2022/01/08 08:09:24;;;;;;;2.30;2.20;;;;;;;1.92;100.00;101064.41;6245252;23;20008;-79
2022/01/08 08:11:49;;;;;;;2.30;2.20;;;;;;;1.91;100.00;101064.41;6244389;23;20004;-77
2022/01/08 08:14:15;;;;;;;2.20;2.10;;;;;;;1.92;100.00;101059.16;6244718;23;19997;-75
2022/01/08 08:16:40;;;;;;;2.25;2.15;;;;;;;1.94;100.00;101054.78;6245772;23;19996;-75
2022/01/08 08:19:06;;;;;;;2.40;2.30;;;;;;;1.97;100.00;101049.50;6244806;23;20075;-75
2022/01/08 08:21:31;;;;;;;2.58;2.47;;;;;;;2.06;100.00;101048.63;6247119;23;20004;-76
2022/01/08 08:23:56;;;;;;;2.60;2.50;;;;;;;2.05;100.00;101044.28;6245828;23;20054;-74
2022/01/08 08:26:21;;;;;;;3.50;3.30;;;;;;;2.19;100.00;101047.69;6246497;23;20004;-76
2022/01/08 08:28:47;;;;;;;2.58;2.47;;;;;;;2.17;100.00;101041.56;6245597;23;20075;-76
2022/01/08 08:31:12;;;;;;;2.70;2.60;;;;;;;2.16;100.00;101043.31;6219730;23;20078;-78
2022/01/08 08:33:38;;;;;;;3.38;3.17;;;;;;;2.17;100.00;101050.31;6247045;23;20007;-77
2022/01/08 08:36:05;;;;;;;4.03;3.60;;;;;;;2.24;100.00;101044.13;6247367;23;20004;-76
2022/01/08 08:38:30;;;;;;;2.78;2.58;;;;;;;2.22;100.00;101027.53;6246287;23;20417;-78
2022/01/08 08:40:57;;;;;;;2.75;2.65;;;;;;;2.20;100.00;101029.34;6247659;23;20018;-81
2022/01/08 08:43:23;;;;;;;2.33;2.22;;;;;;;2.21;100.00;101023.19;6246048;23;20004;-78
2022/01/08 08:45:49;;;;;;;3.08;2.88;;;;;;;2.27;100.00;101020.53;6246395;23;20085;-77
2022/01/08 08:48:15;;;;;;;2.60;2.50;;;;;;;2.19;100.00;101019.72;6247639;23;20008;-78
2022/01/08 08:50:41;;;;;;;2.15;2.05;;;;;;;2.17;100.00;101010.13;6247428;23;20362;-76
2022/01/08 08:53:07;;;;;;;2.83;2.63;;;;;;;2.23;100.00;101016.22;6247804;23;20004;-80
2022/01/08 08:55:32;;;;;;;3.03;2.80;;;;;;;2.21;100.00;101011.84;6247215;23;20031;-80
2022/01/08 08:57:59;;;;;;;2.60;2.50;;;;;;;2.14;100.00;100999.66;6246154;23;20000;-82
2022/01/08 09:00:25;;;;;;;2.78;2.65;;;;;;;2.17;100.00;101011.00;6247070;23;20079;-79
2022/01/08 09:02:50;;;;;;;2.33;2.22;;;;;;;2.29;100.00;100999.56;6247776;23;19996;-79
2022/01/08 09:05:15;;;;;;;3.45;3.25;;;;;;;2.22;100.00;100998.72;6248029;23;20008;-80
2022/01/08 09:07:41;;;;;;;2.60;2.42;;;;;;;2.24;100.00;100999.59;6247798;23;20083;-81
2022/01/08 09:10:09;;;;;;;2.38;2.28;;;;;;;2.34;100.00;100997.78;6248332;23;20026;-82
2022/01/08 09:12:36;;;;;;;2.50;2.40;;;;;;;2.43;100.00;100987.22;6248501;23;20004;-80
2022/01/08 09:15:02;;;;;;;2.90;2.72;;;;;;;2.43;100.00;100975.00;6245607;23;20079;-78
2022/01/08 09:17:27;;;;;;;2.38;2.28;;;;;;;2.42;100.00;100977.63;6247468;23;20005;-81
2022/01/08 09:19:53;;;;;;;2.10;2.00;;;;;;;2.43;100.00;100979.34;6247628;23;20000;-81
2022/01/08 09:22:18;;;;;;;2.17;2.08;;;;;;;2.55;100.00;100969.66;6247546;23;20485;-81
2022/01/08 09:24:45;;;;;;;2.95;2.75;;;;;;;2.45;100.00;100957.53;6247971;23;20011;-80
2022/01/08 09:27:11;;;;;;;2.55;2.35;;;;;;;2.59;100.00;100953.03;6246233;23;20008;-80
2022/01/08 09:29:37;;;;;;;2.40;2.30;;;;;;;2.60;100.00;100956.53;6248284;23;20000;-80
2022/01/08 09:32:07;;;;;;;3.20;3.00;;;;;;;2.61;100.00;100948.66;6246176;23;20016;-80
2022/01/08 09:34:32;;;;;;;2.97;2.78;;;;;;;2.64;100.00;100942.50;6247235;23;20053;-80
2022/01/08 09:36:58;;;;;;;3.58;3.38;;;;;;;2.70;100.00;100939.81;6247223;23;20058;-79
2022/01/08 09:39:24;;;;;;;2.45;2.35;;;;;;;2.70;100.00;100932.81;6247918;23;20004;-80
2022/01/08 09:41:50;;;;;;;2.00;1.90;;;;;;;2.74;100.00;100936.28;6247442;23;20095;-79
2022/01/08 09:44:15;;;;;;;2.20;2.10;;;;;;;2.68;100.00;100931.97;6247323;23;20012;-85
2022/01/08 09:46:42;;;;;;;2.30;2.20;;;;;;;2.81;100.00;100923.09;6247207;23;20122;-80
2022/01/08 09:49:08;;;;;;;2.15;2.05;;;;;;;2.77;100.00;100916.13;6247200;23;20012;-79
2022/01/08 09:51:33;;;;;;;2.33;2.22;;;;;;;2.81;100.00;100907.38;6248157;23;20000;-80
2022/01/08 09:54:02;;;;;;;3.13;2.95;;;;;;;2.71;100.00;100913.56;6245250;23;20267;-82
2022/01/08 09:56:29;;;;;;;2.42;2.33;;;;;;;2.84;100.00;100898.59;6246793;23;20004;-81
2022/01/08 09:58:56;;;;;;;2.30;2.20;;;;;;;2.84;100.00;100894.22;6246371;23;20005;-81
2022/01/08 10:01:31;;;;;;;1.98;1.88;;;;;;;2.81;100.00;100896.00;6243630;23;20015;-82
2022/01/08 10:03:58;;;;;;;2.95;2.75;;;;;;;2.90;100.00;100888.91;6240445;23;20071;-80
2022/01/08 10:06:27;;;;;;;2.10;2.00;;;;;;;2.85;100.00;100876.72;6244646;23;20043;-79
2022/01/08 10:08:53;;;;;;;2.63;2.53;;;;;;;2.85;100.00;100887.22;6246797;23;20443;-79
2022/01/08 10:11:22;;;;;;;3.33;3.13;;;;;;;2.85;100.00;100876.72;6246289;23;20107;-81
2022/01/08 10:13:52;;;;;;;4.82;3.65;;;;;;;2.99;100.00;100861.72;6247398;23;20007;-81
2022/01/08 10:19:19;;;;;;;2.08;1.98;;;;;;;3.16;100.00;100851.88;6246987;23;20015;-79
2022/01/08 10:21:45;;;;;;;2.00;1.90;;;;;;;3.04;100.00;100842.38;6238058;23;20012;-85
2022/01/08 10:24:11;;;;;;;1.90;1.80;;;;;;;2.98;100.00;100829.34;6248264;23;20004;-82
2022/01/08 10:26:41;;;;;;;2.40;2.30;;;;;;;2.96;100.00;100822.41;6246542;23;20011;-84
2022/01/08 10:29:24;;;;;;;3.05;2.85;;;;;;;3.17;100.00;100807.25;6247603;23;20012;-92
2022/01/08 10:31:52;;;;;;;2.60;2.47;;;;;;;3.21;100.00;100812.44;6243945;23;20401;-82
2022/01/08 10:34:25;;;;;;;2.78;2.60;;;;;;;3.19;100.00;100799.34;6247657;23;20007;-85
2022/01/08 10:37:06;;;;;;;2.20;2.10;;;;;;;3.23;100.00;100790.53;6239053;23;20023;-86
2022/01/08 10:39:39;;;;;;;2.70;2.60;;;;;;;3.35;100.00;100785.13;6244194;22;20016;-83
2022/01/08 10:42:10;;;;;;;2.10;2.00;;;;;;;3.35;100.00;100776.38;6247176;23;20613;-83
2022/01/08 10:44:36;;;;;;;2.10;2.00;;;;;;;3.50;100.00;100774.38;6247733;22;20082;-86
2022/01/08 10:47:05;;;;;;;1.90;1.80;;;;;;;3.49;100.00;100771.78;6248113;23;20008;-84
2022/01/08 10:49:40;;;;;;;2.53;2.33;;;;;;;3.56;100.00;100763.78;6248011;23;20004;-91
2022/01/08 10:52:13;;;;;;;1.90;1.80;;;;;;;3.74;100.00;100755.63;6249365;23;20012;-92
2022/01/08 10:54:41;;;;;;;2.72;2.53;;;;;;;3.66;100.00;100754.00;6249095;23;20417;-85
2022/01/08 10:57:08;;;;;;;2.30;2.20;;;;;;;3.74;100.00;100741.63;6247930;22;20039;-87
2022/01/08 10:59:36;;;;;;;2.15;2.05;;;;;;;3.74;100.00;100731.97;6247969;23;20001;-88
2022/01/08 11:02:04;;;;;;;2.50;2.40;;;;;;;3.81;100.00;100717.00;6247480;23;20327;-86
2022/01/08 11:04:32;;;;;;;2.45;2.35;;;;;;;3.87;100.00;100722.13;6248849;23;20011;-88
2022/01/08 11:07:03;;;;;;;2.50;2.30;;;;;;;3.98;100.00;100700.03;6245163;23;20038;-83
2022/01/08 11:09:29;;;;;;;2.17;2.08;;;;;;;3.99;100.00;100690.38;6247434;22;20087;-87
2022/01/08 11:11:58;;;;;;;2.55;2.30;;;;;;;3.97;100.00;100672.00;6246729;23;20052;-83
2022/01/08 11:17:21;;;;;;;4.28;3.00;;;;;;;4.06;100.00;100660.47;6256648;22;20023;-82
2022/01/08 11:19:50;;;;;;;2.20;2.10;;;;;;;4.04;100.00;100662.25;6244792;23;20061;-82
2022/01/08 11:22:17;;;;;;;1.60;1.50;;;;;;;4.13;100.00;100647.19;6246994;23;20004;-82
2022/01/08 11:24:53;;;;;;;1.80;1.70;;;;;;;4.14;100.00;100642.81;6244938;23;20425;-83
2022/01/08 11:27:24;;;;;;;1.58;1.48;;;;;;;4.13;100.00;100635.78;6246715;23;20012;-82
2022/01/08 11:29:57;;;;;;;1.83;1.73;;;;;;;4.13;100.00;100634.03;6245105;23;20015;-82
2022/01/08 11:32:24;;;;;;;2.10;2.00;;;;;;;4.21;100.00;100632.13;6245286;23;20008;-82
2022/01/08 11:34:51;;;;;;;1.83;1.73;;;;;;;4.25;100.00;100622.44;6245732;23;20012;-82
2022/01/08 11:37:18;;;;;;;1.90;1.80;;;;;;;4.18;100.00;100618.19;6246028;23;19996;-85
2022/01/08 11:39:43;;;;;;;2.05;1.95;;;;;;;4.21;100.00;100612.84;6245508;23;20008;-83
2022/01/08 11:42:12;;;;;;;1.70;1.60;;;;;;;4.28;100.00;100599.56;6246367;23;20019;-84
2022/01/08 11:44:38;;;;;;;2.42;2.25;;;;;;;4.11;100.00;100606.06;6247576;23;20489;-86
2022/01/08 11:47:07;;;;;;;2.33;2.22;;;;;;;4.10;100.00;100596.44;6245889;23;20008;-87
2022/01/08 11:49:33;;;;;;;1.95;1.85;;;;;;;4.01;100.00;100596.63;6247495;23;20008;-90